Lackland AFB, Texas
Current Conditions -  °F | °C
As of 2:58 PM on Tuesday 21 Oct 2014 (Local Time) from KSKF Reporting Station
Clear Clear  
Wind Chill: 83°   Ceiling: Unl
Heat Index: 83°   Visibility: 10mi
Dew Point: 53°   Wind: 8mph
Humidity: 36%   Direction: 100°E
Pressure: 29.98"   Gusts: NA
Location:  29.3853°N, 98.6099°W
Report Text: KSKF 211958Z AUTO 10007KT 060V120 10SM CLR 28/12 A2998 RMK AO2 SLP146 T02820119 $
Loading
Personal Weather Stations






























Interactive Weather Map
Tropical Storm Tracking
New forecast layout! Learn more

10-Day Weather Forecast

Advertisements
Track Severe Weather on mobile